(°C)
10°
11°
(°C)
-2°
-1°
V
VJV
VJV
VJV
JV
JV
JJV
(km/h)
19-25
19-27
18-28
18-29
18-30
17-28
14-28
(mm)
3
0
0
0.7
0
1
1.4
(%)
68
59
60
71
49
71
85

Sluneční výška

/ -0.5°
sun-icon
UV 1
07:07
19:02
Ubývající měsíc (264°)
22:22
14:58

METAR pro 51.02°S 71.47°V (UACC)

Čas Podmínky Teplota/
Rosný bod
Vítr Viditelnost Počasí Oblaky Tlak Změna Nezpracované
VFR 3°C / 1°C 100º 10kt >10km Light Showers Rain 3.00mm precipitation Vertical Visibility of 0ft. 1011 No Significant change. Runway 04: Wet or puddles, , friction coefficient 0.55. UACC 280030Z 10005MPS 9999 -SHRA SCT050CB 03/01 Q1011 R04/2///55 NOSIG RMK QFE727/0970
VFR 3°C / 1°C 90º 12kt >10km - Clouds and Visibility OK 1011 No Significant change. Runway 04: Wet or puddles, , friction coefficient 0.55. UACC 280000Z 09006MPS CAVOK 03/01 Q1011 R04/2///55 NOSIG RMK QFE727/0969
VFR 4°C / 0°C 100º 12kt >10km - Clouds and Visibility OK 1012 No Significant change. Runway 04: Clear and dry, , friction coefficient 0.70. UACC 272330Z 10006MPS CAVOK 04/00 Q1012 R04/0///70 NOSIG RMK QFE727/0970
VFR 4°C / 0°C 90º 14kt >10km - Clouds and Visibility OK 1012 No Significant change. Runway 04: Clear and dry, , friction coefficient 0.70. UACC 272300Z 09007MPS CAVOK 04/00 Q1012 R04/0///70 NOSIG RMK QFE727/0970
VFR 3°C / 0°C 90º 14kt >10km - Clouds and Visibility OK 1012 No Significant change. Runway 04: Clear and dry, , friction coefficient 0.70. UACC 272230Z 09007MPS CAVOK 03/00 Q1012 R04/0///70 NOSIG RMK QFE728/0970
VFR 4°C / 0°C 100º 14kt >10km - Scattered Clouds 2000ft 1012 No Significant change. Runway 04: Clear and dry, , friction coefficient 0.70. UACC 272200Z 10007MPS 9999 SCT020CB 04/M00 Q1012 R04/0///70 NOSIG RMK QFE728/0971
MVFR 4°C / 0°C 90º 14kt >10km - Broken Clouds 2000ft 1012 No Significant change. Runway 04: Clear and dry, , friction coefficient 0.70. UACC 272130Z 09007MPS 9999 BKN020 04/M00 Q1012 R04/0///70 NOSIG RMK QFE728/0971
MVFR 4°C / 0°C 90º 14kt >10km - Overcast 2000ft 1012 No Significant change. Runway 04: Clear and dry, , friction coefficient 0.70. UACC 272100Z 09007MPS 9999 OVC020 04/M00 Q1012 R04/0///70 NOSIG RMK QFE728/0971
MVFR 4°C / 0°C 90º 10kt >10km - Broken Clouds 2300ft 1013 No Significant change. Runway 04: Clear and dry, , friction coefficient 0.70. UACC 272030Z 09005MPS 9999 BKN023 04/M00 Q1013 R04/0///70 NOSIG RMK QFE728/0971
VFR 3°C / -1°C 90º 12kt >10km - Scattered Clouds 2600ft 1013 No Significant change. Runway 04: Clear and dry, , friction coefficient 0.70. UACC 272000Z 09006MPS 9999 SCT026 03/M01 Q1013 R04/0///70 NOSIG RMK QFE728/0971
VFR 4°C / -1°C 90º 10kt >10km - Scattered Clouds 2600ft 1012 No Significant change. Runway 04: Clear and dry, , friction coefficient 0.70. UACC 271930Z 09005MPS 9999 SCT026 04/M01 Q1012 R04/0///70 NOSIG RMK QFE728/0971
VFR 4°C / -1°C 90º 12kt >10km - Clouds and Visibility OK 1012 No Significant change. Runway 04: Clear and dry, , friction coefficient 0.70. UACC 271900Z 09006MPS CAVOK 04/M01 Q1012 R04/0///70 NOSIG RMK QFE728/0971
VFR 4°C / -2°C 90º 14kt >10km - Clouds and Visibility OK 1012 No Significant change. Runway 04: Clear and dry, , friction coefficient 0.70. UACC 271830Z 09007MPS CAVOK 04/M02 Q1012 R04/0///70 NOSIG RMK QFE728/0971
VFR 4°C / -4°C 80º 12kt >10km - Clouds and Visibility OK 1012 No Significant change. Runway 04: Clear and dry, , friction coefficient 0.70. UACC 271800Z 08006MPS CAVOK 04/M04 Q1012 R04/0///70 NOSIG RMK QFE728/0970
VFR 3°C / -5°C 90º 10kt >10km - Clouds and Visibility OK 1012 No Significant change. Runway 04: Clear and dry, , friction coefficient 0.70. UACC 271730Z 09005MPS CAVOK 03/M05 Q1012 R04/0///70 NOSIG RMK QFE728/0970
VFR 5°C / -6°C 90º 10kt >10km - Clouds and Visibility OK 1012 No Significant change. Runway 04: Clear and dry, , friction coefficient 0.70. UACC 271700Z 09005MPS CAVOK 05/M06 Q1012 R04/0///70 NOSIG RMK QFE728/0971
VFR 6°C / -6°C 90º 14kt >10km - Scattered Clouds 4300ft 1012 No Significant change. Runway 04: Clear and dry, , friction coefficient 0.70. UACC 271630Z 09007MPS 9999 SCT043 06/M06 Q1012 R04/0///70 NOSIG RMK QFE728/0970
VFR 5°C / -7°C 80º 14kt >10km - Scattered Clouds 4300ft 1012 No Significant change. Runway 04: Clear and dry, , friction coefficient 0.70. UACC 271600Z 08007MPS 9999 SCT043 05/M07 Q1012 R04/0///70 NOSIG RMK QFE728/0970
VFR 5°C / -6°C 80º 14kt >10km - Overcast 4000ft 1012 No Significant change. Runway 04: Clear and dry, , friction coefficient 0.70. UACC 271530Z 08007MPS 9999 OVC040 05/M06 Q1012 R04/0///70 NOSIG RMK QFE728/0971
VFR 5°C / -6°C 70º 16kt >10km - Scattered Clouds 4000ft 1012 No Significant change. Runway 04: Clear and dry, , friction coefficient 0.70. UACC 271500Z 07008MPS 9999 SCT040CB 05/M06 Q1012 R04/0///70 NOSIG RMK QFE728/0971
VFR 6°C / -6°C 80º 17kt >10km - Scattered Clouds 4000ft 1012 No Significant change. Runway 04: Clear and dry, , friction coefficient 0.70. UACC 271430Z 08009MPS 9999 SCT040CB 06/M06 Q1012 R04/0///70 NOSIG RMK QFE728/0971
VFR 6°C / -8°C 80º 17kt >10km - Scattered Clouds 4000ft 1012 No Significant change. Runway 04: Clear and dry, , friction coefficient 0.70. UACC 271400Z 08009MPS 9999 SCT040CB 06/M08 Q1012 R04/0///70 NOSIG RMK QFE727/0970
VFR 7°C / -9°C 70º 16kt >10km - Scattered Clouds 4000ft 1012 No Significant change. Runway 04: Clear and dry, , friction coefficient 0.70. UACC 271330Z 07008MPS 9999 SCT040CB 07/M09 Q1012 R04/0///70 NOSIG RMK QFE727/0970
VFR 7°C / -7°C 80º 16kt >10km - Scattered Clouds 4000ft 1011 No Significant change. Runway 04: Clear and dry, , friction coefficient 0.70. UACC 271300Z 08008MPS 9999 SCT040CB 07/M07 Q1011 R04/0///70 NOSIG RMK QFE727/0970

VFR

3°C / 1°C

[Víc]
Vítr 100º 10kt
Viditelnost >10km
Počasí Light Showers Rain 3.00mm precipitation
Oblaky Vertical Visibility of 0ft.
Tlak 1011
Změna No Significant change. Runway 04: Wet or puddles, , friction coefficient 0.55.
Nezpracované UACC 280030Z 10005MPS 9999 -SHRA SCT050CB 03/01 Q1011 R04/2///55 NOSIG RMK QFE727/0970

VFR

3°C / 1°C

[Víc]
Vítr 90º 12kt
Viditelnost >10km
Počasí -
Oblaky Clouds and Visibility OK
Tlak 1011
Změna No Significant change. Runway 04: Wet or puddles, , friction coefficient 0.55.
Nezpracované UACC 280000Z 09006MPS CAVOK 03/01 Q1011 R04/2///55 NOSIG RMK QFE727/0969

VFR

4°C / 0°C

[Víc]
Vítr 100º 12kt
Viditelnost >10km
Počasí -
Oblaky Clouds and Visibility OK
Tlak 1012
Změna No Significant change. Runway 04: Clear and dry, , friction coefficient 0.70.
Nezpracované UACC 272330Z 10006MPS CAVOK 04/00 Q1012 R04/0///70 NOSIG RMK QFE727/0970

VFR

4°C / 0°C

[Víc]
Vítr 90º 14kt
Viditelnost >10km
Počasí -
Oblaky Clouds and Visibility OK
Tlak 1012
Změna No Significant change. Runway 04: Clear and dry, , friction coefficient 0.70.
Nezpracované UACC 272300Z 09007MPS CAVOK 04/00 Q1012 R04/0///70 NOSIG RMK QFE727/0970

VFR

3°C / 0°C

[Víc]
Vítr 90º 14kt
Viditelnost >10km
Počasí -
Oblaky Clouds and Visibility OK
Tlak 1012
Změna No Significant change. Runway 04: Clear and dry, , friction coefficient 0.70.
Nezpracované UACC 272230Z 09007MPS CAVOK 03/00 Q1012 R04/0///70 NOSIG RMK QFE728/0970

VFR

4°C / 0°C

[Víc]
Vítr 100º 14kt
Viditelnost >10km
Počasí -
Oblaky Scattered Clouds 2000ft
Tlak 1012
Změna No Significant change. Runway 04: Clear and dry, , friction coefficient 0.70.
Nezpracované UACC 272200Z 10007MPS 9999 SCT020CB 04/M00 Q1012 R04/0///70 NOSIG RMK QFE728/0971

MVFR

4°C / 0°C

[Víc]
Vítr 90º 14kt
Viditelnost >10km
Počasí -
Oblaky Broken Clouds 2000ft
Tlak 1012
Změna No Significant change. Runway 04: Clear and dry, , friction coefficient 0.70.
Nezpracované UACC 272130Z 09007MPS 9999 BKN020 04/M00 Q1012 R04/0///70 NOSIG RMK QFE728/0971

MVFR

4°C / 0°C

[Víc]
Vítr 90º 14kt
Viditelnost >10km
Počasí -
Oblaky Overcast 2000ft
Tlak 1012
Změna No Significant change. Runway 04: Clear and dry, , friction coefficient 0.70.
Nezpracované UACC 272100Z 09007MPS 9999 OVC020 04/M00 Q1012 R04/0///70 NOSIG RMK QFE728/0971

MVFR

4°C / 0°C

[Víc]
Vítr 90º 10kt
Viditelnost >10km
Počasí -
Oblaky Broken Clouds 2300ft
Tlak 1013
Změna No Significant change. Runway 04: Clear and dry, , friction coefficient 0.70.
Nezpracované UACC 272030Z 09005MPS 9999 BKN023 04/M00 Q1013 R04/0///70 NOSIG RMK QFE728/0971

VFR

3°C / -1°C

[Víc]
Vítr 90º 12kt
Viditelnost >10km
Počasí -
Oblaky Scattered Clouds 2600ft
Tlak 1013
Změna No Significant change. Runway 04: Clear and dry, , friction coefficient 0.70.
Nezpracované UACC 272000Z 09006MPS 9999 SCT026 03/M01 Q1013 R04/0///70 NOSIG RMK QFE728/0971

VFR

4°C / -1°C

[Víc]
Vítr 90º 10kt
Viditelnost >10km
Počasí -
Oblaky Scattered Clouds 2600ft
Tlak 1012
Změna No Significant change. Runway 04: Clear and dry, , friction coefficient 0.70.
Nezpracované UACC 271930Z 09005MPS 9999 SCT026 04/M01 Q1012 R04/0///70 NOSIG RMK QFE728/0971

VFR

4°C / -1°C

[Víc]
Vítr 90º 12kt
Viditelnost >10km
Počasí -
Oblaky Clouds and Visibility OK
Tlak 1012
Změna No Significant change. Runway 04: Clear and dry, , friction coefficient 0.70.
Nezpracované UACC 271900Z 09006MPS CAVOK 04/M01 Q1012 R04/0///70 NOSIG RMK QFE728/0971

VFR

4°C / -2°C

[Víc]
Vítr 90º 14kt
Viditelnost >10km
Počasí -
Oblaky Clouds and Visibility OK
Tlak 1012
Změna No Significant change. Runway 04: Clear and dry, , friction coefficient 0.70.
Nezpracované UACC 271830Z 09007MPS CAVOK 04/M02 Q1012 R04/0///70 NOSIG RMK QFE728/0971

VFR

4°C / -4°C

[Víc]
Vítr 80º 12kt
Viditelnost >10km
Počasí -
Oblaky Clouds and Visibility OK
Tlak 1012
Změna No Significant change. Runway 04: Clear and dry, , friction coefficient 0.70.
Nezpracované UACC 271800Z 08006MPS CAVOK 04/M04 Q1012 R04/0///70 NOSIG RMK QFE728/0970

VFR

3°C / -5°C

[Víc]
Vítr 90º 10kt
Viditelnost >10km
Počasí -
Oblaky Clouds and Visibility OK
Tlak 1012
Změna No Significant change. Runway 04: Clear and dry, , friction coefficient 0.70.
Nezpracované UACC 271730Z 09005MPS CAVOK 03/M05 Q1012 R04/0///70 NOSIG RMK QFE728/0970

VFR

5°C / -6°C

[Víc]
Vítr 90º 10kt
Viditelnost >10km
Počasí -
Oblaky Clouds and Visibility OK
Tlak 1012
Změna No Significant change. Runway 04: Clear and dry, , friction coefficient 0.70.
Nezpracované UACC 271700Z 09005MPS CAVOK 05/M06 Q1012 R04/0///70 NOSIG RMK QFE728/0971

VFR

6°C / -6°C

[Víc]
Vítr 90º 14kt
Viditelnost >10km
Počasí -
Oblaky Scattered Clouds 4300ft
Tlak 1012
Změna No Significant change. Runway 04: Clear and dry, , friction coefficient 0.70.
Nezpracované UACC 271630Z 09007MPS 9999 SCT043 06/M06 Q1012 R04/0///70 NOSIG RMK QFE728/0970

VFR

5°C / -7°C

[Víc]
Vítr 80º 14kt
Viditelnost >10km
Počasí -
Oblaky Scattered Clouds 4300ft
Tlak 1012
Změna No Significant change. Runway 04: Clear and dry, , friction coefficient 0.70.
Nezpracované UACC 271600Z 08007MPS 9999 SCT043 05/M07 Q1012 R04/0///70 NOSIG RMK QFE728/0970

VFR

5°C / -6°C

[Víc]
Vítr 80º 14kt
Viditelnost >10km
Počasí -
Oblaky Overcast 4000ft
Tlak 1012
Změna No Significant change. Runway 04: Clear and dry, , friction coefficient 0.70.
Nezpracované UACC 271530Z 08007MPS 9999 OVC040 05/M06 Q1012 R04/0///70 NOSIG RMK QFE728/0971

VFR

5°C / -6°C

[Víc]
Vítr 70º 16kt
Viditelnost >10km
Počasí -
Oblaky Scattered Clouds 4000ft
Tlak 1012
Změna No Significant change. Runway 04: Clear and dry, , friction coefficient 0.70.
Nezpracované UACC 271500Z 07008MPS 9999 SCT040CB 05/M06 Q1012 R04/0///70 NOSIG RMK QFE728/0971

VFR

6°C / -6°C

[Víc]
Vítr 80º 17kt
Viditelnost >10km
Počasí -
Oblaky Scattered Clouds 4000ft
Tlak 1012
Změna No Significant change. Runway 04: Clear and dry, , friction coefficient 0.70.
Nezpracované UACC 271430Z 08009MPS 9999 SCT040CB 06/M06 Q1012 R04/0///70 NOSIG RMK QFE728/0971

VFR

6°C / -8°C

[Víc]
Vítr 80º 17kt
Viditelnost >10km
Počasí -
Oblaky Scattered Clouds 4000ft
Tlak 1012
Změna No Significant change. Runway 04: Clear and dry, , friction coefficient 0.70.
Nezpracované UACC 271400Z 08009MPS 9999 SCT040CB 06/M08 Q1012 R04/0///70 NOSIG RMK QFE727/0970

VFR

7°C / -9°C

[Víc]
Vítr 70º 16kt
Viditelnost >10km
Počasí -
Oblaky Scattered Clouds 4000ft
Tlak 1012
Změna No Significant change. Runway 04: Clear and dry, , friction coefficient 0.70.
Nezpracované UACC 271330Z 07008MPS 9999 SCT040CB 07/M09 Q1012 R04/0///70 NOSIG RMK QFE727/0970

VFR

7°C / -7°C

[Víc]
Vítr 80º 16kt
Viditelnost >10km
Počasí -
Oblaky Scattered Clouds 4000ft
Tlak 1011
Změna No Significant change. Runway 04: Clear and dry, , friction coefficient 0.70.
Nezpracované UACC 271300Z 08008MPS 9999 SCT040CB 07/M07 Q1011 R04/0///70 NOSIG RMK QFE727/0970

TAF pro 51.02°S 71.47°V (UACC)

From till


Maximum Temperature 12ºC on . Minimum Temperature 1ºC on .
From till Wind 100º 12kt. Visibility 10km or more. Scattered Clouds 1100ft. Broken Clouds 3000ft.
Temporarly from till Wind 130º 17kt. Visibility 3100m. Light Showers Rain Light Showers Snow . Few Clouds 700ft. Broken Clouds 2000ft.
Temporarly from till Wind 220º 12kt. Visibility 2000m. Showers Rain . Few Clouds 700ft. Broken Clouds 2000ft.
Becoming from till Wind 200º 12kt. Visibility 10km or more. Scattered Clouds 1100ft. Broken Clouds 3000ft.
Temporarly from till Visibility 3100m. Light Showers Rain . Scattered Clouds 700ft. Broken Clouds 2000ft.
Temporarly from till Wind variable 4kt. Visibility 3100m. Light Showers Rain Mist . Scattered Clouds 500ft. Broken Clouds 2000ft.

Nezpracované: TAF UACC 272308Z 2800/2824 10006MPS 9999 SCT011 BKN030 TX12/2809Z TN01/2823Z TEMPO 2800/2805 13009MPS 3100 -SHRASN FEW007 BKN020CB BECMG 2805/2809 20006MPS TEMPO 2805/2812 22006MPS 2000 SHRA FEW007 BKN020CB TEMPO 2812/2818 3100 -SHRA SCT007 BKN020CB TEMPO 2818/2824 VRB02MPS 3100 -SHRA BR SCT005 BKN020CB

Aktuální snímky ze satelitu a srážky pro 51.02°S 71.47°V

Značka polohy je umístěna na 51.02°S 71.47°V. [Víc]

Satelitní snímek v reálném čase kombinuje viditelné světlo během dne s infračerveným zářením během noci. V noci není obraz tmavý, protože infračervené záření dokáže detekovat teplotní rozdíly. Nízká oblačnost a mlha se bohužel těžko odlišují od pozemních teplot, a proto mohou být během noci téměř neviditelné. Satelitní snímky z Meteosatu pro Evropu jsou aktualizovány v reálném čase každých 5 minut. Snímky z GOES-16/GOES-17 (Severní a Jižní Amerika) a Himawari (Asie) jsou aktualizovány) každých 10 minut.

Copyright 2021 EUMETSAT / meteoblue. / Copyright 2021 meteoblue

Radar a krátkodobá předpověď srážek pro 51.02°S 71.47°V

Mrholení
Slabé
Mírná
Silné
Velmi silné
Kroupy

Značka lokality je umístněna na 51.02°S 71.47°V. Tato animace ukazuje srážky zaznamenané radarem za poslední hodinu a také 1h předpověď. Mrholení nebo slabé sněžení může být pro radar neviditelné. Intenzita srážek je barevně označena od světle modré po oranžovou.